Elbow, Canada
Current Conditions -  °F | °C
As of 1:00 PM on Friday 26 Dec 2014 (Local Time) from CYXE Reporting Station
Broken Clouds Broken Clouds  
Wind Chill: -9°   Ceiling: 9000
Heat Index:   Visibility: 15mi
Dew Point:   Wind: 12mph
Humidity: 85%   Direction: 220°SW
Pressure: 30.14"   Gusts: NA
Location:  51.12°N, 106.6°W
Report Text: CYXE 261900Z 22010KT 15SM SCT012 BKN090 M14/M16 A3014 RMK SC3AC4 SLP256
Loading
Personal Weather Stations






























Interactive Weather Map New forecast layout! Learn more

10-Day Weather Forecast

Advertisements
Track Severe Weather on mobile